createdAt,value
2022-12-20T00:01:26.017Z,3.65
2022-12-20T00:03:55.074Z,3.28
2022-12-20T00:06:22.857Z,4.32
2022-12-20T00:08:55.384Z,4.70
2022-12-20T00:11:22.962Z,6.15
2022-12-20T00:13:49.645Z,6.65
2022-12-20T00:16:22.135Z,4.90
2022-12-20T00:18:53.285Z,5.63
2022-12-20T00:21:20.416Z,5.53
2022-12-20T00:23:47.035Z,3.30
2022-12-20T00:26:16.966Z,5.57
2022-12-20T00:28:45.347Z,3.25
2022-12-20T00:31:13.855Z,6.78
2022-12-20T00:33:40.849Z,4.32
2022-12-20T00:36:09.219Z,5.13
2022-12-20T00:38:36.473Z,5.03
2022-12-20T00:41:18.174Z,4.97
2022-12-20T00:43:44.974Z,7.18
2022-12-20T00:46:12.794Z,3.28
2022-12-20T00:48:39.457Z,4.38
2022-12-20T00:51:08.615Z,5.22
2022-12-20T00:53:36.705Z,4.13
2022-12-20T00:56:04.631Z,3.63
2022-12-20T00:58:33.496Z,3.92
2022-12-20T01:01:00.411Z,3.65
2022-12-20T01:03:28.035Z,3.90
2022-12-20T01:06:00.474Z,5.88
2022-12-20T01:08:30.082Z,7.03
2022-12-20T01:11:01.464Z,6.68
2022-12-20T01:13:28.697Z,7.57
2022-12-20T01:15:55.404Z,4.05
2022-12-20T01:18:22.987Z,5.60
2022-12-20T01:20:49.623Z,3.92
2022-12-20T01:23:16.308Z,3.42
2022-12-20T01:25:42.993Z,4.75
2022-12-20T01:28:10.089Z,5.30
2022-12-20T01:30:40.592Z,3.58
2022-12-20T01:33:07.652Z,3.93
2022-12-20T01:35:34.313Z,6.05
2022-12-20T01:38:00.941Z,6.85
2022-12-20T01:40:27.655Z,4.97
2022-12-20T01:42:54.350Z,5.13
2022-12-20T01:45:27.917Z,4.03
2022-12-20T01:47:55.530Z,4.65
2022-12-20T01:50:23.422Z,3.90
2022-12-20T01:52:51.596Z,3.45
2022-12-20T01:55:19.772Z,4.65
2022-12-20T01:57:58.248Z,6.15
2022-12-20T02:00:25.234Z,5.22
2022-12-20T02:02:52.055Z,5.15
2022-12-20T02:05:23.555Z,4.65
2022-12-20T02:07:54.174Z,4.05
2022-12-20T02:10:24.890Z,5.90
2022-12-20T02:13:05.239Z,6.90
2022-12-20T02:15:56.145Z,3.63
2022-12-20T02:18:28.252Z,3.35
2022-12-20T02:21:19.446Z,4.20
2022-12-20T02:24:14.006Z,5.18
2022-12-20T02:27:00.730Z,6.15
2022-12-20T02:29:43.338Z,5.32
2022-12-20T02:32:40.588Z,4.35
2022-12-20T02:35:09.570Z,5.82
2022-12-20T02:37:36.390Z,5.90
2022-12-20T02:40:05.189Z,4.72
2022-12-20T02:42:33.315Z,4.55
2022-12-20T02:45:26.004Z,6.32
2022-12-20T02:48:19.782Z,4.63
2022-12-20T02:50:51.381Z,6.80
2022-12-20T02:53:20.182Z,4.72
2022-12-20T02:55:58.991Z,3.72
2022-12-20T02:58:44.770Z,5.68
2022-12-20T03:01:20.415Z,4.80
2022-12-20T03:03:47.783Z,5.93
2022-12-20T03:06:14.603Z,6.63
2022-12-20T03:08:41.306Z,4.00
2022-12-20T03:11:08.331Z,5.47
2022-12-20T03:13:35.005Z,6.57
2022-12-20T03:18:33.644Z,5.05
2022-12-20T03:21:00.414Z,7.00
2022-12-20T03:23:27.188Z,5.53
2022-12-20T03:25:54.282Z,4.43
2022-12-20T03:28:31.301Z,4.80
2022-12-20T03:30:58.275Z,2.92
2022-12-20T03:33:25.421Z,4.55
2022-12-20T03:35:52.178Z,5.90
2022-12-20T03:38:19.184Z,5.25
2022-12-20T03:40:45.936Z,8.73
2022-12-20T03:43:16.746Z,7.23
2022-12-20T03:45:43.435Z,8.18
2022-12-20T03:48:10.179Z,5.22
2022-12-20T03:50:37.144Z,5.35
2022-12-20T03:53:04.197Z,6.55
2022-12-20T03:55:33.153Z,4.82
2022-12-20T03:58:00.419Z,4.63
2022-12-20T04:00:31.602Z,3.72
2022-12-20T04:03:17.130Z,4.32
2022-12-20T04:05:44.364Z,6.63
2022-12-20T04:08:12.671Z,5.00
2022-12-20T04:11:00.243Z,4.35
2022-12-20T04:13:32.323Z,6.32
2022-12-20T04:16:00.867Z,4.38
2022-12-20T04:18:30.870Z,4.60
2022-12-20T04:21:00.610Z,4.45
2022-12-20T04:23:29.409Z,5.22
2022-12-20T04:25:56.043Z,4.40
2022-12-20T04:28:22.817Z,5.32
2022-12-20T04:30:50.999Z,5.68
2022-12-20T04:33:24.125Z,5.85
2022-12-20T04:35:51.908Z,6.45
2022-12-20T04:38:23.592Z,5.85
2022-12-20T04:40:53.118Z,6.78
2022-12-20T04:43:21.222Z,4.13
2022-12-20T04:45:49.853Z,6.75
2022-12-20T04:48:54.728Z,6.32
2022-12-20T04:51:03.552Z,5.00
2022-12-20T04:53:49.902Z,4.82
2022-12-20T04:56:34.750Z,7.22
2022-12-20T04:59:08.555Z,6.32
2022-12-20T05:01:36.090Z,6.95
2022-12-20T05:04:03.304Z,6.78
2022-12-20T05:06:33.932Z,4.90
2022-12-20T05:09:01.014Z,7.63
2022-12-20T05:11:27.937Z,6.38
2022-12-20T05:13:54.732Z,5.85
2022-12-20T05:16:21.862Z,6.20
2022-12-20T05:18:49.746Z,7.75
2022-12-20T05:21:36.096Z,7.85
2022-12-20T05:24:23.533Z,7.10
2022-12-20T05:26:59.681Z,7.35
2022-12-20T05:29:26.789Z,8.07
2022-12-20T05:31:54.899Z,7.25
2022-12-20T05:34:22.050Z,12.25
2022-12-20T05:36:52.762Z,10.73
2022-12-20T05:39:21.183Z,7.45
2022-12-20T05:41:50.213Z,9.57
2022-12-20T05:44:18.224Z,8.68
2022-12-20T05:46:48.523Z,6.80
2022-12-20T05:49:21.020Z,6.50
2022-12-20T05:51:48.628Z,7.65
2022-12-20T05:54:22.904Z,6.45
2022-12-20T05:57:04.888Z,6.50
2022-12-20T05:59:37.761Z,9.07
2022-12-20T06:02:07.381Z,6.00
2022-12-20T06:04:35.402Z,6.13
2022-12-20T06:07:08.386Z,6.80
2022-12-20T06:09:35.737Z,7.38
2022-12-20T06:12:07.268Z,6.25
2022-12-20T06:14:34.624Z,9.90
2022-12-20T06:17:02.246Z,9.05
2022-12-20T06:19:30.354Z,7.30
2022-12-20T06:21:58.285Z,6.68
2022-12-20T06:24:47.687Z,8.65
2022-12-20T06:27:15.610Z,6.65
2022-12-20T06:29:49.310Z,8.98
2022-12-20T06:32:16.462Z,8.77
2022-12-20T06:34:43.504Z,6.05
2022-12-20T06:37:11.397Z,8.98
2022-12-20T06:39:38.116Z,6.78
2022-12-20T06:42:07.675Z,5.57
2022-12-20T06:44:35.666Z,8.40
2022-12-20T06:47:02.878Z,6.50
2022-12-20T06:49:30.355Z,9.02
2022-12-20T06:51:57.855Z,5.85
2022-12-20T06:54:43.270Z,8.20
2022-12-20T06:57:10.038Z,5.72
2022-12-20T06:59:37.924Z,5.72
2022-12-20T07:02:05.500Z,7.57
2022-12-20T07:04:34.149Z,5.78
2022-12-20T07:07:00.891Z,9.60
2022-12-20T07:09:27.528Z,6.88
2022-12-20T07:11:54.252Z,7.53
2022-12-20T07:14:20.966Z,7.30
2022-12-20T07:16:47.727Z,6.32
2022-12-20T07:19:15.568Z,6.72
2022-12-20T07:21:43.259Z,8.02
2022-12-20T07:24:10.688Z,5.45
2022-12-20T07:26:37.378Z,5.05
2022-12-20T07:29:05.028Z,9.35
2022-12-20T07:31:31.924Z,6.40
2022-12-20T07:33:59.434Z,6.00
2022-12-20T07:36:26.161Z,6.45
2022-12-20T07:38:52.787Z,8.60
2022-12-20T07:41:19.461Z,6.50
2022-12-20T07:43:46.330Z,5.68
2022-12-20T07:46:14.977Z,7.25
2022-12-20T07:48:41.926Z,5.60
2022-12-20T07:51:18.916Z,4.85
2022-12-20T07:53:50.151Z,7.40
2022-12-20T07:56:20.886Z,4.70
2022-12-20T07:58:50.600Z,5.40
2022-12-20T08:01:17.708Z,5.05
2022-12-20T08:03:49.718Z,9.20
2022-12-20T08:06:17.606Z,8.80
2022-12-20T08:08:49.238Z,5.65
2022-12-20T08:13:46.532Z,4.50
2022-12-20T08:16:14.289Z,5.85
2022-12-20T08:18:41.009Z,5.57
2022-12-20T08:21:08.432Z,7.88
2022-12-20T08:23:35.101Z,5.68
2022-12-20T08:26:02.419Z,5.90
2022-12-20T08:28:29.169Z,5.53
2022-12-20T08:31:03.211Z,5.78
2022-12-20T08:33:30.568Z,4.97
2022-12-20T08:35:59.245Z,4.95
2022-12-20T08:38:27.740Z,10.48
2022-12-20T08:40:54.594Z,5.90
2022-12-20T08:43:21.550Z,8.02
2022-12-20T08:45:55.357Z,10.98
2022-12-20T08:48:22.960Z,7.70
2022-12-20T08:50:57.494Z,6.95
2022-12-20T08:53:24.966Z,9.48
2022-12-20T08:55:51.756Z,8.68
2022-12-20T08:58:18.935Z,9.57
2022-12-20T09:00:46.746Z,8.90
2022-12-20T09:03:16.812Z,13.32
2022-12-20T09:05:45.588Z,12.15
2022-12-20T09:08:12.387Z,11.90
2022-12-20T09:10:39.153Z,6.95
2022-12-20T09:13:05.843Z,6.82
2022-12-20T09:15:34.888Z,6.93
2022-12-20T09:18:02.079Z,8.35
2022-12-20T09:20:29.177Z,8.77
2022-12-20T09:22:56.172Z,9.32
2022-12-20T09:25:23.009Z,8.98
2022-12-20T09:27:50.033Z,6.78
2022-12-20T09:30:17.026Z,6.50
2022-12-20T09:32:43.961Z,6.55
2022-12-20T09:35:10.660Z,4.68
2022-12-20T09:37:37.359Z,5.20
2022-12-20T09:40:04.591Z,6.20
2022-12-20T09:42:31.712Z,3.50
2022-12-20T09:45:09.566Z,5.72
2022-12-20T09:47:37.510Z,6.43
2022-12-20T09:50:06.172Z,4.72
2022-12-20T09:53:11.117Z,4.35
2022-12-20T09:55:46.872Z,5.35
2022-12-20T09:58:30.837Z,4.63
2022-12-20T10:00:58.436Z,6.28
2022-12-20T10:03:33.365Z,8.13
2022-12-20T10:06:26.069Z,4.72
2022-12-20T10:09:09.873Z,4.35
2022-12-20T10:11:54.762Z,6.55
2022-12-20T10:14:30.602Z,4.88
2022-12-20T10:17:10.552Z,5.68
2022-12-20T10:20:19.024Z,6.10
2022-12-20T10:23:08.849Z,3.85
2022-12-20T10:25:35.866Z,4.18
2022-12-20T10:28:10.243Z,5.25
2022-12-20T10:30:37.247Z,3.17
2022-12-20T10:33:04.091Z,4.10
2022-12-20T10:35:40.397Z,4.80
2022-12-20T10:38:12.803Z,5.60
2022-12-20T10:41:19.484Z,4.22
2022-12-20T10:43:48.624Z,6.53
2022-12-20T10:46:22.428Z,4.20
2022-12-20T10:48:50.827Z,5.05
2022-12-20T10:51:22.567Z,3.88
2022-12-20T10:56:31.479Z,6.75
2022-12-20T10:59:21.264Z,4.95
2022-12-20T11:01:49.713Z,4.28
2022-12-20T11:04:35.384Z,5.38
2022-12-20T11:07:21.409Z,5.18
2022-12-20T11:10:04.590Z,5.50
2022-12-20T11:12:31.893Z,5.65
2022-12-20T11:15:20.822Z,4.22
2022-12-20T11:18:55.422Z,4.10
2022-12-20T11:21:45.079Z,5.08
2022-12-20T11:24:23.908Z,5.90
2022-12-20T11:26:56.759Z,4.53
2022-12-20T11:29:41.621Z,4.13
2022-12-20T11:32:48.418Z,5.55
2022-12-20T11:35:21.148Z,3.70
2022-12-20T11:37:53.933Z,5.32
2022-12-20T11:40:32.406Z,4.68
2022-12-20T11:43:54.161Z,6.13
2022-12-20T11:46:43.100Z,8.82
2022-12-20T11:49:18.602Z,10.55
2022-12-20T11:51:58.633Z,4.75
2022-12-20T11:54:35.637Z,6.75
2022-12-20T11:57:26.402Z,5.00
2022-12-20T12:00:02.655Z,7.82
2022-12-20T12:02:59.082Z,5.10
2022-12-20T12:05:51.001Z,5.95
2022-12-20T12:08:28.147Z,5.47
2022-12-20T12:11:00.212Z,5.68
2022-12-20T12:13:29.301Z,5.22
2022-12-20T12:16:10.098Z,7.22
2022-12-20T12:18:39.398Z,7.45
2022-12-20T12:21:10.126Z,6.15
2022-12-20T12:24:05.791Z,6.90
2022-12-20T12:26:34.723Z,4.95
2022-12-20T12:29:10.342Z,7.85
2022-12-20T12:31:56.108Z,6.80
2022-12-20T12:34:22.871Z,4.93
2022-12-20T12:37:16.628Z,3.88
2022-12-20T12:39:50.520Z,7.25
2022-12-20T12:42:33.967Z,5.47
2022-12-20T12:45:05.298Z,9.75
2022-12-20T12:47:34.922Z,8.23
2022-12-20T12:50:03.988Z,9.18
2022-12-20T12:52:49.536Z,8.32
2022-12-20T12:55:37.959Z,6.82
2022-12-20T12:58:15.260Z,10.15
2022-12-20T13:01:05.335Z,7.90
2022-12-20T13:04:06.111Z,7.65
2022-12-20T13:06:36.247Z,9.18
2022-12-20T13:09:03.223Z,5.53
2022-12-20T13:11:32.866Z,7.72
2022-12-20T13:14:25.549Z,10.13
2022-12-20T13:17:12.787Z,9.02
2022-12-20T13:19:51.146Z,8.27
2022-12-20T13:22:17.848Z,9.52
2022-12-20T13:24:57.531Z,10.43
2022-12-20T13:27:27.916Z,7.43
2022-12-20T13:30:02.657Z,9.63
2022-12-20T13:32:47.647Z,10.25
2022-12-20T13:35:27.727Z,10.07
2022-12-20T13:37:55.081Z,6.30
2022-12-20T13:40:40.918Z,9.73
2022-12-20T13:43:25.180Z,10.02
2022-12-20T13:45:57.038Z,9.98
2022-12-20T13:48:31.478Z,7.78
2022-12-20T13:50:58.420Z,9.10
2022-12-20T13:53:27.766Z,10.00
2022-12-20T13:55:55.149Z,6.65
2022-12-20T13:58:25.932Z,8.10
2022-12-20T14:00:54.087Z,10.10
2022-12-20T14:03:27.217Z,8.43
2022-12-20T14:06:01.082Z,9.02
2022-12-20T14:08:33.773Z,7.85
2022-12-20T14:11:27.721Z,7.47
2022-12-20T14:14:00.066Z,10.75
2022-12-20T14:16:29.530Z,8.52
2022-12-20T14:19:02.974Z,9.27
2022-12-20T14:21:30.144Z,8.10
2022-12-20T14:23:59.467Z,9.82
2022-12-20T14:26:30.068Z,8.90
2022-12-20T14:28:58.866Z,9.15
2022-12-20T14:31:39.348Z,12.68
2022-12-20T14:34:12.048Z,7.73
2022-12-20T14:36:41.471Z,7.78
2022-12-20T14:39:32.303Z,8.85
2022-12-20T14:42:02.775Z,7.93
2022-12-20T14:44:31.382Z,6.90
2022-12-20T14:47:01.869Z,8.02
2022-12-20T14:49:37.223Z,10.85
2022-12-20T14:52:17.924Z,7.68
2022-12-20T14:55:14.354Z,5.07
2022-12-20T14:57:55.545Z,5.57
2022-12-20T15:00:27.517Z,6.80
2022-12-20T15:02:59.811Z,8.27
2022-12-20T15:05:36.340Z,5.43
2022-12-20T15:08:18.497Z,4.78
2022-12-20T15:10:50.307Z,6.97
2022-12-20T15:13:19.046Z,5.88
2022-12-20T15:15:46.369Z,6.70
2022-12-20T15:18:15.245Z,8.68
2022-12-20T15:20:43.628Z,8.02
2022-12-20T15:23:16.523Z,7.53
2022-12-20T15:25:44.253Z,8.63
2022-12-20T15:28:21.226Z,9.15
2022-12-20T15:30:49.443Z,7.25
2022-12-20T15:33:26.275Z,7.47
2022-12-20T15:35:54.171Z,8.00
2022-12-20T15:38:47.471Z,9.48
2022-12-20T15:41:28.565Z,9.02
2022-12-20T15:46:24.023Z,6.10
2022-12-20T15:48:50.813Z,5.43
2022-12-20T15:51:30.134Z,7.57
2022-12-20T15:53:57.591Z,9.50
2022-12-20T15:56:25.575Z,6.15
2022-12-20T15:58:55.183Z,8.18
2022-12-20T16:01:27.166Z,6.38
2022-12-20T16:03:54.103Z,7.65
2022-12-20T16:06:20.841Z,8.07
2022-12-20T16:08:47.518Z,15.13
2022-12-20T16:11:23.681Z,6.97
2022-12-20T16:13:51.205Z,7.72
2022-12-20T16:16:19.606Z,6.88
2022-12-20T16:18:46.482Z,16.67
2022-12-20T16:21:18.830Z,8.70
2022-12-20T16:23:47.052Z,11.45
2022-12-20T16:26:15.994Z,4.95
2022-12-20T16:28:43.073Z,5.78
2022-12-20T16:31:21.503Z,62.50
2022-12-20T16:33:48.466Z,21.40
2022-12-20T16:36:15.423Z,14.50
2022-12-20T16:38:42.073Z,10.57
2022-12-20T16:41:19.916Z,7.57
2022-12-20T16:43:47.835Z,6.30
2022-12-20T16:46:19.275Z,7.10
2022-12-20T16:48:46.643Z,9.90
2022-12-20T16:51:25.364Z,6.10
2022-12-20T16:54:21.045Z,9.50
2022-12-20T16:56:54.944Z,7.60
2022-12-20T16:59:23.539Z,10.43
2022-12-20T17:01:53.334Z,8.88
2022-12-20T17:04:21.219Z,10.98
2022-12-20T17:06:48.067Z,9.52
2022-12-20T17:09:18.397Z,7.70
2022-12-20T17:11:45.495Z,9.38
2022-12-20T17:14:13.448Z,6.85
2022-12-20T17:16:41.110Z,6.93
2022-12-20T17:19:09.135Z,8.35
2022-12-20T17:24:24.707Z,9.82
2022-12-20T17:26:55.368Z,9.82
2022-12-20T17:29:22.119Z,7.47
2022-12-20T17:31:48.989Z,8.13
2022-12-20T17:34:21.549Z,8.45
2022-12-20T17:36:49.915Z,12.68
2022-12-20T17:39:17.048Z,9.63
2022-12-20T17:41:44.927Z,7.45
2022-12-20T17:44:23.427Z,8.10
2022-12-20T17:46:50.387Z,9.23
2022-12-20T17:49:17.861Z,7.60
2022-12-20T17:51:45.173Z,8.15
2022-12-20T17:54:22.001Z,7.63
2022-12-20T17:56:49.794Z,6.25
2022-12-20T17:59:17.183Z,7.45
2022-12-20T18:01:45.509Z,10.43
2022-12-20T18:04:14.708Z,10.32
2022-12-20T18:06:43.630Z,10.18
2022-12-20T18:09:18.380Z,11.13
2022-12-20T18:11:45.778Z,8.05
2022-12-20T18:14:13.100Z,7.88
2022-12-20T18:16:40.340Z,8.93
2022-12-20T18:19:14.235Z,8.63
2022-12-20T18:21:41.623Z,8.00
2022-12-20T18:24:11.842Z,8.40
2022-12-20T18:26:38.665Z,8.95
2022-12-20T18:29:05.375Z,10.32
2022-12-20T18:31:34.578Z,7.40
2022-12-20T18:34:02.494Z,11.57
2022-12-20T18:36:32.068Z,12.88
2022-12-20T18:39:00.016Z,8.13
2022-12-20T18:41:29.054Z,7.00
2022-12-20T18:44:01.618Z,9.57
2022-12-20T18:46:28.915Z,11.52
2022-12-20T18:48:58.664Z,9.23
2022-12-20T18:51:27.777Z,10.15
2022-12-20T18:53:56.530Z,8.75
2022-12-20T18:56:30.846Z,9.75
2022-12-20T18:59:02.973Z,9.45
2022-12-20T19:01:35.645Z,9.13
2022-12-20T19:04:04.657Z,8.05
2022-12-20T19:06:32.045Z,10.15
2022-12-20T19:09:04.160Z,10.88
2022-12-20T19:11:30.957Z,10.27
2022-12-20T19:13:57.602Z,9.27
2022-12-20T19:16:28.056Z,9.40
2022-12-20T19:18:55.200Z,11.13
2022-12-20T19:21:24.368Z,9.35
2022-12-20T19:23:53.804Z,11.98
2022-12-20T19:26:22.317Z,16.08
2022-12-20T19:28:49.125Z,14.23
2022-12-20T19:31:23.661Z,13.35
2022-12-20T19:33:53.033Z,14.55
2022-12-20T19:36:21.441Z,16.02
2022-12-20T19:38:51.564Z,17.25
2022-12-20T19:41:18.873Z,16.45
2022-12-20T19:43:47.784Z,18.55
2022-12-20T19:46:15.033Z,21.52
2022-12-20T19:48:41.997Z,21.52
2022-12-20T19:51:11.613Z,19.10
2022-12-20T19:53:39.761Z,17.88
2022-12-20T19:56:09.951Z,20.13
2022-12-20T19:58:37.688Z,17.00
2022-12-20T20:01:07.030Z,17.92
2022-12-20T20:03:35.140Z,15.65
2022-12-20T20:06:03.488Z,13.90
2022-12-20T20:08:30.959Z,16.00
2022-12-20T20:11:03.846Z,19.50
2022-12-20T20:13:34.298Z,15.95
2022-12-20T20:16:03.136Z,17.42
2022-12-20T20:18:33.151Z,14.75
2022-12-20T20:20:59.864Z,19.17
2022-12-20T20:23:27.080Z,13.93
2022-12-20T20:25:59.995Z,16.02
2022-12-20T20:28:32.300Z,15.85
2022-12-20T20:31:01.849Z,15.52
2022-12-20T20:33:30.183Z,15.90
2022-12-20T20:35:59.109Z,15.27
2022-12-20T20:38:26.892Z,16.75
2022-12-20T20:40:53.894Z,16.88
2022-12-20T20:43:21.471Z,18.67
2022-12-20T20:45:48.889Z,23.10
2022-12-20T20:48:16.299Z,29.95
2022-12-20T20:50:44.623Z,25.65
2022-12-20T20:53:12.537Z,28.30
2022-12-20T20:55:39.230Z,27.77
2022-12-20T20:58:05.920Z,29.67
2022-12-20T21:00:32.817Z,32.15
2022-12-20T21:02:59.826Z,41.63
2022-12-20T21:08:15.466Z,44.90
2022-12-20T21:10:42.993Z,44.47
2022-12-20T21:13:09.872Z,46.95
2022-12-20T21:15:36.963Z,49.60
2022-12-20T21:18:03.723Z,47.17
2022-12-20T21:20:30.609Z,45.17
2022-12-20T21:22:58.205Z,43.30
2022-12-20T21:25:24.876Z,38.25
2022-12-20T21:27:51.556Z,39.30
2022-12-20T21:30:18.301Z,34.90
2022-12-20T21:32:45.598Z,36.03
2022-12-20T21:35:12.261Z,34.05
2022-12-20T21:37:38.901Z,28.75
2022-12-20T21:40:07.518Z,28.13
2022-12-20T21:42:34.397Z,25.73
2022-12-20T21:45:01.428Z,22.95
2022-12-20T21:47:28.147Z,20.75
2022-12-20T21:49:54.774Z,17.75
2022-12-20T21:52:21.513Z,18.00
2022-12-20T21:54:48.143Z,19.02
2022-12-20T21:57:14.787Z,19.77
2022-12-20T21:59:41.386Z,18.17
2022-12-20T22:02:11.415Z,18.63
2022-12-20T22:04:39.151Z,19.50
2022-12-20T22:07:06.149Z,16.25
2022-12-20T22:09:33.895Z,17.15
2022-12-20T22:12:00.639Z,15.93
2022-12-20T22:14:27.252Z,14.95
2022-12-20T22:16:55.192Z,15.60
2022-12-20T22:19:21.951Z,18.88
2022-12-20T22:21:53.702Z,16.13
2022-12-20T22:24:24.233Z,17.00
2022-12-20T22:26:50.977Z,18.10
2022-12-20T22:29:17.651Z,13.90
2022-12-20T22:31:44.512Z,14.98
2022-12-20T22:34:11.526Z,15.40
2022-12-20T22:36:38.185Z,15.13
2022-12-20T22:39:04.922Z,16.58
2022-12-20T22:41:34.532Z,15.10
2022-12-20T22:44:01.661Z,16.13
2022-12-20T22:46:31.372Z,13.23
2022-12-20T22:48:59.218Z,15.95
2022-12-20T22:51:27.378Z,17.55
2022-12-20T22:53:57.605Z,17.65
2022-12-20T22:56:24.323Z,13.93
2022-12-20T22:58:51.242Z,13.85
2022-12-20T23:01:19.835Z,14.85
2022-12-20T23:03:47.384Z,15.73
2022-12-20T23:06:17.693Z,13.93
2022-12-20T23:08:44.507Z,14.55
2022-12-20T23:11:43.104Z,18.83
2022-12-20T23:14:37.692Z,16.73
2022-12-20T23:17:06.442Z,15.45
2022-12-20T23:19:51.997Z,17.27
2022-12-20T23:22:38.510Z,14.07
2022-12-20T23:25:11.651Z,15.65
2022-12-20T23:27:39.642Z,20.77
2022-12-20T23:30:08.447Z,16.58
2022-12-20T23:32:35.625Z,16.23
2022-12-20T23:35:08.348Z,20.20
2022-12-20T23:37:38.865Z,18.98
2022-12-20T23:40:06.761Z,17.27
2022-12-20T23:42:33.408Z,16.10
2022-12-20T23:45:00.146Z,19.77
2022-12-20T23:47:26.763Z,16.33
2022-12-20T23:49:53.455Z,17.52
2022-12-20T23:52:20.095Z,19.92
2022-12-20T23:54:46.759Z,18.67
2022-12-20T23:57:13.934Z,21.95
2022-12-20T23:59:40.706Z,20.60
